Main page
METAR-TAF:

METAR-TAF

Airports :

London, England

London City Airport

latitude: 51-30N, longitude: 000-03E, elevation: 5 m

Current weather observation

The report was made 27 minutes ago, at 22:50 UTC
Wind 9 kt from the West/Southwest
Temperature 18°C
Humidity 68%
Pressure 1015 hPa
Visibility 10 km or more

METAR: EGLC 232250Z AUTO 25009KT 9999 NCD 18/12 Q1015

Time: 00:17 (23:17 UTC)

Forecast

The report was made 6 hours and 19 minutes ago, at 16:58 UTC
Forecast valid from 23 at 18 UTC to 23 at 21 UTC
Wind 10 kt from the West
Visibility 10 km or more
Few clouds at a height of 4000 ft

TAF: EGLC 231658Z 2318/2321 26010KT 9999 FEW040

Weather observations and forecasts of more than 4000 airports (METAR and TAF reports).

The available stations are represented by yellow and red dots on the map.

Hover mouse over dot to see the name of the station.

Then click to see weather observations and forecasts.

To change the map : click on the green buttons with a black cross to zoom in, on the green button with a dash to zoom out, or on the green arrows for adjacent maps.


METAR-TAF: